createdAt,value
2023-03-26T00:02:12.318Z,100.00
2023-03-26T00:04:42.194Z,100.00
2023-03-26T00:07:12.168Z,100.00
2023-03-26T00:09:40.550Z,100.00
2023-03-26T00:12:09.017Z,100.00
2023-03-26T00:14:40.452Z,100.00
2023-03-26T00:17:09.546Z,100.00
2023-03-26T00:19:39.775Z,100.00
2023-03-26T00:22:10.664Z,100.00
2023-03-26T00:24:40.541Z,100.00
2023-03-26T00:27:08.968Z,100.00
2023-03-26T00:29:39.704Z,100.00
2023-03-26T00:32:08.156Z,100.00
2023-03-26T00:34:36.638Z,100.00
2023-03-26T00:37:05.155Z,100.00
2023-03-26T00:39:36.878Z,100.00
2023-03-26T00:42:07.682Z,100.00
2023-03-26T00:44:36.390Z,100.00
2023-03-26T00:47:07.375Z,100.00
2023-03-26T00:49:36.348Z,100.00
2023-03-26T00:52:08.092Z,100.00
2023-03-26T00:54:37.252Z,100.00
2023-03-26T00:57:09.906Z,100.00
2023-03-26T00:59:41.901Z,100.00
2023-03-26T01:02:16.699Z,100.00
2023-03-26T01:04:47.587Z,100.00
2023-03-26T01:07:21.301Z,100.00
2023-03-26T01:09:52.773Z,100.00
2023-03-26T01:12:25.526Z,100.00
2023-03-26T01:15:00.133Z,100.00
2023-03-26T01:17:34.010Z,100.00
2023-03-26T01:20:14.447Z,100.00
2023-03-26T01:22:47.784Z,100.00
2023-03-26T01:25:22.775Z,100.00
2023-03-26T01:27:53.618Z,100.00
2023-03-26T01:30:30.601Z,100.00
2023-03-26T01:33:06.657Z,100.00
2023-03-26T01:35:43.265Z,100.00
2023-03-26T01:38:24.536Z,100.00
2023-03-26T01:41:02.797Z,100.00
2023-03-26T01:43:37.180Z,100.00
2023-03-26T01:46:10.769Z,100.00
2023-03-26T01:48:42.009Z,100.00
2023-03-26T01:51:12.469Z,100.00
2023-03-26T01:53:45.592Z,100.00
2023-03-26T01:56:22.831Z,100.00
2023-03-26T01:59:06.874Z,100.00
2023-03-26T02:01:44.301Z,100.00
2023-03-26T02:04:20.564Z,100.00
2023-03-26T02:06:58.219Z,100.00
2023-03-26T02:09:31.698Z,100.00
2023-03-26T02:12:05.064Z,100.00
2023-03-26T02:14:35.910Z,100.00
2023-03-26T02:17:05.530Z,100.00
2023-03-26T02:19:34.032Z,100.00
2023-03-26T02:22:02.798Z,100.00
2023-03-26T02:24:33.758Z,100.00
2023-03-26T02:27:07.243Z,100.00
2023-03-26T02:29:37.384Z,100.00
2023-03-26T02:32:07.293Z,100.00
2023-03-26T02:34:37.318Z,100.00
2023-03-26T02:37:05.780Z,100.00
2023-03-26T02:39:34.877Z,100.00
2023-03-26T02:42:12.367Z,100.00
2023-03-26T02:44:47.760Z,100.00
2023-03-26T02:47:19.688Z,100.00
2023-03-26T02:49:54.058Z,100.00
2023-03-26T02:52:29.241Z,100.00
2023-03-26T02:54:59.597Z,100.00
2023-03-26T02:57:30.985Z,100.00
2023-03-26T02:59:59.381Z,100.00
2023-03-26T03:02:40.353Z,100.00
2023-03-26T03:05:28.426Z,100.00
2023-03-26T03:08:09.669Z,100.00
2023-03-26T03:10:51.810Z,100.00
2023-03-26T03:13:33.488Z,100.00
2023-03-26T03:16:04.408Z,100.00
2023-03-26T03:18:33.063Z,100.00
2023-03-26T03:21:02.423Z,100.00
2023-03-26T03:23:30.984Z,100.00
2023-03-26T03:26:15.022Z,100.00
2023-03-26T03:28:48.688Z,100.00
2023-03-26T03:31:18.468Z,100.00
2023-03-26T03:33:47.224Z,100.00
2023-03-26T03:36:21.763Z,100.00
2023-03-26T03:39:01.988Z,100.00
2023-03-26T03:41:30.808Z,100.00
2023-03-26T03:44:03.107Z,100.00
2023-03-26T03:46:33.695Z,100.00
2023-03-26T03:49:02.592Z,100.00
2023-03-26T03:51:37.658Z,100.00
2023-03-26T03:54:13.837Z,100.00
2023-03-26T03:57:03.154Z,100.00
2023-03-26T03:59:36.552Z,100.00
2023-03-26T04:02:08.060Z,100.00
2023-03-26T04:04:54.040Z,100.00
2023-03-26T04:07:23.497Z,100.00
2023-03-26T04:10:18.687Z,100.00
2023-03-26T04:13:22.769Z,100.00
2023-03-26T04:16:12.557Z,100.00
2023-03-26T04:18:41.235Z,100.00
2023-03-26T04:21:16.505Z,100.00
2023-03-26T04:23:46.771Z,100.00
2023-03-26T04:26:41.262Z,100.00
2023-03-26T04:29:17.679Z,100.00
2023-03-26T04:31:50.000Z,100.00
2023-03-26T04:34:23.527Z,100.00
2023-03-26T04:37:05.416Z,100.00
2023-03-26T04:39:39.648Z,100.00
2023-03-26T04:42:33.084Z,100.00
2023-03-26T04:45:10.681Z,100.00
2023-03-26T04:47:43.022Z,100.00
2023-03-26T04:50:13.320Z,100.00
2023-03-26T04:52:45.093Z,100.00
2023-03-26T04:55:38.601Z,100.00
2023-03-26T04:58:16.629Z,100.00
2023-03-26T05:00:55.392Z,100.00
2023-03-26T05:03:30.672Z,100.00
2023-03-26T05:06:03.774Z,100.00
2023-03-26T05:08:32.641Z,100.00
2023-03-26T05:11:01.152Z,100.00
2023-03-26T05:13:35.394Z,100.00
2023-03-26T05:16:10.185Z,100.00
2023-03-26T05:18:59.090Z,100.00
2023-03-26T05:21:32.681Z,100.00
2023-03-26T05:24:01.708Z,100.00
2023-03-26T05:26:31.169Z,100.00
2023-03-26T05:28:59.806Z,100.00
2023-03-26T05:31:34.210Z,100.00
2023-03-26T05:34:06.221Z,100.00
2023-03-26T05:36:35.057Z,100.00
2023-03-26T05:39:17.860Z,100.00
2023-03-26T05:42:09.869Z,100.00
2023-03-26T05:44:53.534Z,100.00
2023-03-26T05:47:28.582Z,100.00
2023-03-26T05:49:59.886Z,100.00
2023-03-26T05:52:28.724Z,100.00
2023-03-26T05:55:29.107Z,100.00
2023-03-26T05:58:20.946Z,100.00
2023-03-26T06:01:09.971Z,100.00
2023-03-26T06:04:01.413Z,100.00
2023-03-26T06:06:35.322Z,100.00
2023-03-26T06:09:04.225Z,100.00
2023-03-26T06:11:33.567Z,100.00
2023-03-26T06:14:04.191Z,100.00
2023-03-26T06:16:33.595Z,100.00
2023-03-26T06:19:31.322Z,100.00
2023-03-26T06:22:09.382Z,100.00
2023-03-26T06:24:56.952Z,100.00
2023-03-26T06:27:46.301Z,100.00
2023-03-26T06:30:33.422Z,100.00
2023-03-26T06:33:08.282Z,100.00
2023-03-26T06:35:45.072Z,100.00
2023-03-26T06:38:16.785Z,100.00
2023-03-26T06:40:45.589Z,100.00
2023-03-26T06:43:41.408Z,100.00
2023-03-26T06:46:23.111Z,100.00
2023-03-26T06:48:57.528Z,100.00
2023-03-26T06:51:49.720Z,100.00
2023-03-26T06:54:39.147Z,100.00
2023-03-26T06:57:26.468Z,100.00
2023-03-26T07:00:27.224Z,100.00
2023-03-26T07:03:16.790Z,100.00
2023-03-26T07:06:04.793Z,100.00
2023-03-26T07:08:52.019Z,100.00
2023-03-26T07:11:41.456Z,100.00
2023-03-26T07:14:32.517Z,100.00
2023-03-26T07:17:14.152Z,100.00
2023-03-26T07:19:52.238Z,100.00
2023-03-26T07:22:25.822Z,100.00
2023-03-26T07:25:16.489Z,100.00
2023-03-26T07:28:12.941Z,100.00
2023-03-26T07:31:12.491Z,100.00
2023-03-26T07:33:55.640Z,100.00
2023-03-26T07:36:37.210Z,100.00
2023-03-26T07:39:38.965Z,100.00
2023-03-26T07:42:27.685Z,100.00
2023-03-26T07:45:41.136Z,100.00
2023-03-26T07:48:27.008Z,100.00
2023-03-26T07:51:02.900Z,100.00
2023-03-26T07:53:50.982Z,100.00
2023-03-26T07:56:43.049Z,100.00
2023-03-26T07:59:36.535Z,100.00
2023-03-26T08:02:51.821Z,100.00
2023-03-26T08:06:10.588Z,100.00
2023-03-26T08:09:04.382Z,100.00
2023-03-26T08:11:58.642Z,100.00
2023-03-26T08:14:40.815Z,100.00
2023-03-26T08:17:13.002Z,100.00
2023-03-26T08:19:57.532Z,100.00
2023-03-26T08:22:30.895Z,100.00
2023-03-26T08:25:19.696Z,100.00
2023-03-26T08:28:00.723Z,100.00
2023-03-26T08:30:30.604Z,100.00
2023-03-26T08:33:01.487Z,100.00
2023-03-26T08:35:33.386Z,100.00
2023-03-26T08:38:03.450Z,100.00
2023-03-26T08:41:06.862Z,100.00
2023-03-26T08:44:07.642Z,100.00
2023-03-26T08:47:03.926Z,100.00
2023-03-26T08:49:51.039Z,100.00
2023-03-26T08:52:47.769Z,100.00
2023-03-26T08:55:37.307Z,100.00
2023-03-26T08:58:38.449Z,100.00
2023-03-26T09:02:01.527Z,100.00
2023-03-26T09:05:20.638Z,100.00
2023-03-26T09:08:17.098Z,100.00
2023-03-26T09:10:53.549Z,100.00
2023-03-26T09:14:06.544Z,100.00
2023-03-26T09:17:17.250Z,100.00
2023-03-26T09:20:33.440Z,100.00
2023-03-26T09:23:28.782Z,100.00
2023-03-26T09:26:35.968Z,100.00
2023-03-26T09:29:41.699Z,100.00
2023-03-26T09:32:41.123Z,100.00
2023-03-26T09:35:19.313Z,100.00
2023-03-26T09:38:02.952Z,100.00
2023-03-26T09:40:46.677Z,100.00
2023-03-26T09:43:37.426Z,100.00
2023-03-26T09:46:21.444Z,100.00
2023-03-26T09:49:06.088Z,100.00
2023-03-26T09:52:00.485Z,82.99
2023-03-26T09:54:50.491Z,77.40
2023-03-26T09:57:36.654Z,81.96
2023-03-26T10:00:29.279Z,85.30
2023-03-26T10:03:20.551Z,83.11
2023-03-26T10:06:01.448Z,91.03
2023-03-26T10:08:47.614Z,89.49
2023-03-26T10:11:25.591Z,90.76
2023-03-26T10:14:05.539Z,83.96
2023-03-26T10:16:43.845Z,87.80
2023-03-26T10:19:28.643Z,84.58
2023-03-26T10:22:06.421Z,87.45
2023-03-26T10:24:47.255Z,85.38
2023-03-26T10:27:30.465Z,83.55
2023-03-26T10:30:40.221Z,82.96
2023-03-26T10:33:24.592Z,81.88
2023-03-26T10:36:04.197Z,88.05
2023-03-26T10:38:49.260Z,94.99
2023-03-26T10:41:23.604Z,100.00
2023-03-26T10:44:21.468Z,100.00
2023-03-26T10:47:16.854Z,100.00
2023-03-26T10:50:28.033Z,100.00
2023-03-26T10:53:01.860Z,100.00
2023-03-26T10:55:37.143Z,100.00
2023-03-26T10:58:14.905Z,100.00
2023-03-26T11:00:52.762Z,100.00
2023-03-26T11:03:51.336Z,100.00
2023-03-26T11:06:38.434Z,100.00
2023-03-26T11:09:23.985Z,100.00
2023-03-26T11:12:03.106Z,100.00
2023-03-26T11:14:59.851Z,100.00
2023-03-26T11:17:41.592Z,100.00
2023-03-26T11:20:18.462Z,100.00
2023-03-26T11:23:03.230Z,100.00
2023-03-26T11:25:53.324Z,100.00
2023-03-26T11:28:37.443Z,100.00
2023-03-26T11:31:15.125Z,100.00
2023-03-26T11:33:49.947Z,100.00
2023-03-26T11:36:23.864Z,100.00
2023-03-26T11:38:58.860Z,100.00
2023-03-26T11:41:32.367Z,100.00
2023-03-26T11:44:28.304Z,100.00
2023-03-26T11:47:01.048Z,100.00
2023-03-26T11:49:31.089Z,100.00
2023-03-26T11:52:01.432Z,100.00
2023-03-26T11:54:32.932Z,100.00
2023-03-26T11:57:08.206Z,100.00
2023-03-26T11:59:53.255Z,100.00
2023-03-26T12:02:28.537Z,100.00
2023-03-26T12:05:13.643Z,95.29
2023-03-26T12:07:48.332Z,90.79
2023-03-26T12:10:28.494Z,90.15
2023-03-26T12:13:00.688Z,92.35
2023-03-26T12:15:30.984Z,95.75
2023-03-26T12:18:19.101Z,98.80
2023-03-26T12:20:47.782Z,100.00
2023-03-26T12:23:53.444Z,100.00
2023-03-26T12:26:33.495Z,100.00
2023-03-26T12:29:09.764Z,100.00
2023-03-26T12:31:57.095Z,100.00
2023-03-26T12:34:34.460Z,100.00
2023-03-26T12:37:04.917Z,100.00
2023-03-26T12:40:09.078Z,100.00
2023-03-26T12:44:49.730Z,100.00
2023-03-26T12:45:24.093Z,100.00
2023-03-26T12:48:01.669Z,100.00
2023-03-26T12:50:45.930Z,100.00
2023-03-26T12:53:39.215Z,100.00
2023-03-26T12:56:21.385Z,100.00
2023-03-26T12:59:18.974Z,100.00
2023-03-26T13:01:55.768Z,100.00
2023-03-26T13:04:38.042Z,100.00
2023-03-26T13:07:18.397Z,100.00
2023-03-26T13:10:07.284Z,100.00
2023-03-26T13:12:44.591Z,100.00
2023-03-26T13:15:28.186Z,100.00
2023-03-26T13:18:08.087Z,100.00
2023-03-26T13:20:51.000Z,100.00
2023-03-26T13:23:34.838Z,100.00
2023-03-26T13:26:12.991Z,100.00
2023-03-26T13:28:52.048Z,100.00
2023-03-26T13:31:28.091Z,100.00
2023-03-26T13:34:05.476Z,100.00
2023-03-26T13:36:46.193Z,100.00
2023-03-26T13:39:27.903Z,100.00
2023-03-26T13:42:16.101Z,100.00
2023-03-26T13:45:04.979Z,100.00
2023-03-26T13:47:41.762Z,100.00
2023-03-26T13:50:20.598Z,100.00
2023-03-26T13:52:55.478Z,100.00
2023-03-26T13:55:30.905Z,100.00
2023-03-26T13:58:05.545Z,100.00
2023-03-26T14:00:53.393Z,100.00
2023-03-26T14:03:33.035Z,100.00
2023-03-26T14:06:06.870Z,100.00
2023-03-26T14:08:40.114Z,100.00
2023-03-26T14:11:13.235Z,100.00
2023-03-26T14:13:51.162Z,100.00
2023-03-26T14:16:24.060Z,100.00
2023-03-26T14:19:02.928Z,100.00
2023-03-26T14:21:50.978Z,100.00
2023-03-26T14:24:39.546Z,100.00
2023-03-26T14:27:27.961Z,100.00
2023-03-26T14:30:17.263Z,100.00
2023-03-26T14:33:02.874Z,100.00
2023-03-26T14:35:39.024Z,100.00
2023-03-26T14:38:34.405Z,100.00
2023-03-26T14:41:22.593Z,100.00
2023-03-26T14:44:17.261Z,100.00
2023-03-26T14:46:58.509Z,100.00
2023-03-26T14:49:43.112Z,100.00
2023-03-26T14:52:19.241Z,100.00
2023-03-26T14:54:52.833Z,100.00
2023-03-26T14:58:01.419Z,100.00
2023-03-26T15:01:04.385Z,100.00
2023-03-26T15:04:06.987Z,100.00
2023-03-26T15:07:12.308Z,100.00
2023-03-26T15:10:30.491Z,100.00
2023-03-26T15:13:22.642Z,100.00
2023-03-26T15:16:14.613Z,100.00
2023-03-26T15:19:18.278Z,100.00
2023-03-26T15:22:13.755Z,100.00
2023-03-26T15:25:21.520Z,100.00
2023-03-26T15:28:16.757Z,100.00
2023-03-26T15:31:36.218Z,100.00
2023-03-26T15:34:55.345Z,100.00
2023-03-26T15:37:56.765Z,100.00
2023-03-26T15:40:37.897Z,100.00
2023-03-26T15:43:13.101Z,100.00
2023-03-26T15:45:46.961Z,100.00
2023-03-26T15:48:38.995Z,100.00
2023-03-26T15:51:46.467Z,100.00
2023-03-26T15:54:24.632Z,100.00
2023-03-26T15:57:18.025Z,100.00
2023-03-26T16:00:01.501Z,100.00
2023-03-26T16:02:39.979Z,100.00
2023-03-26T16:05:32.519Z,100.00
2023-03-26T16:08:14.349Z,100.00
2023-03-26T16:10:51.029Z,100.00
2023-03-26T16:13:31.742Z,100.00
2023-03-26T16:16:24.351Z,100.00
2023-03-26T16:18:59.984Z,100.00
2023-03-26T16:21:40.932Z,100.00
2023-03-26T16:24:32.739Z,100.00
2023-03-26T16:27:24.344Z,100.00
2023-03-26T16:30:20.230Z,100.00
2023-03-26T16:32:54.727Z,100.00
2023-03-26T16:36:08.219Z,100.00
2023-03-26T16:38:55.279Z,100.00
2023-03-26T16:41:27.875Z,100.00
2023-03-26T16:44:13.204Z,100.00
2023-03-26T16:46:57.649Z,100.00
2023-03-26T16:49:39.748Z,100.00
2023-03-26T16:52:28.220Z,100.00
2023-03-26T16:55:07.358Z,100.00
2023-03-26T16:57:42.976Z,100.00
2023-03-26T17:00:31.420Z,100.00
2023-03-26T17:03:18.353Z,100.00
2023-03-26T17:06:05.469Z,100.00
2023-03-26T17:08:43.734Z,100.00
2023-03-26T17:11:24.658Z,100.00
2023-03-26T17:14:05.549Z,100.00
2023-03-26T17:16:40.427Z,100.00
2023-03-26T17:19:25.014Z,100.00
2023-03-26T17:22:00.395Z,100.00
2023-03-26T17:24:41.312Z,100.00
2023-03-26T17:27:37.965Z,100.00
2023-03-26T17:30:45.632Z,100.00
2023-03-26T17:33:23.312Z,100.00
2023-03-26T17:36:31.398Z,100.00
2023-03-26T17:39:39.302Z,100.00
2023-03-26T17:42:20.420Z,100.00
2023-03-26T17:44:51.880Z,100.00
2023-03-26T17:47:37.598Z,100.00
2023-03-26T17:50:15.047Z,100.00
2023-03-26T17:52:55.992Z,100.00
2023-03-26T17:55:30.193Z,100.00
2023-03-26T17:58:00.888Z,100.00
2023-03-26T18:00:33.168Z,100.00
2023-03-26T18:03:06.003Z,100.00
2023-03-26T18:05:36.115Z,100.00
2023-03-26T18:08:21.211Z,100.00
2023-03-26T18:11:23.319Z,100.00
2023-03-26T18:14:13.547Z,100.00
2023-03-26T18:16:45.648Z,100.00
2023-03-26T18:19:19.629Z,100.00
2023-03-26T18:21:51.416Z,100.00
2023-03-26T18:24:27.589Z,100.00
2023-03-26T18:26:59.713Z,100.00
2023-03-26T18:29:31.058Z,100.00
2023-03-26T18:32:02.461Z,100.00
2023-03-26T18:34:36.287Z,100.00
2023-03-26T18:37:16.100Z,100.00
2023-03-26T18:39:59.467Z,100.00
2023-03-26T18:42:31.765Z,100.00
2023-03-26T18:45:06.296Z,100.00
2023-03-26T18:47:38.115Z,100.00
2023-03-26T18:50:08.168Z,100.00
2023-03-26T18:52:36.777Z,100.00
2023-03-26T18:55:07.659Z,100.00
2023-03-26T18:57:36.388Z,100.00
2023-03-26T19:00:20.227Z,100.00
2023-03-26T19:02:51.172Z,100.00
2023-03-26T19:05:20.614Z,100.00
2023-03-26T19:07:49.492Z,100.00
2023-03-26T19:10:21.751Z,100.00
2023-03-26T19:12:57.883Z,100.00
2023-03-26T19:15:28.674Z,100.00
2023-03-26T19:18:03.295Z,100.00
2023-03-26T19:20:38.052Z,100.00
2023-03-26T19:23:08.466Z,100.00
2023-03-26T19:25:45.573Z,100.00
2023-03-26T19:28:20.237Z,100.00
2023-03-26T19:30:53.922Z,100.00
2023-03-26T19:33:23.936Z,100.00
2023-03-26T19:36:04.326Z,100.00
2023-03-26T19:38:40.822Z,100.00
2023-03-26T19:41:22.591Z,100.00
2023-03-26T19:43:52.117Z,100.00
2023-03-26T19:46:25.845Z,100.00
2023-03-26T19:48:55.746Z,100.00
2023-03-26T19:51:28.759Z,100.00
2023-03-26T19:54:00.707Z,100.00
2023-03-26T19:56:33.859Z,100.00
2023-03-26T19:59:02.589Z,100.00
2023-03-26T20:01:32.109Z,100.00
2023-03-26T20:04:05.821Z,100.00
2023-03-26T20:06:43.302Z,100.00
2023-03-26T20:09:13.643Z,100.00
2023-03-26T20:11:46.046Z,100.00
2023-03-26T20:14:16.963Z,100.00
2023-03-26T20:16:46.172Z,100.00
2023-03-26T20:19:18.763Z,100.00
2023-03-26T20:21:47.470Z,100.00
2023-03-26T20:24:18.482Z,100.00
2023-03-26T20:26:52.041Z,100.00
2023-03-26T20:29:23.369Z,100.00
2023-03-26T20:31:52.339Z,100.00
2023-03-26T20:34:23.635Z,100.00
2023-03-26T20:36:54.906Z,100.00
2023-03-26T20:39:24.854Z,100.00
2023-03-26T20:41:57.384Z,100.00
2023-03-26T20:44:26.934Z,100.00
2023-03-26T20:46:55.890Z,100.00
2023-03-26T20:49:24.881Z,100.00
2023-03-26T20:51:53.696Z,100.00
2023-03-26T20:54:24.652Z,100.00
2023-03-26T20:56:55.762Z,100.00
2023-03-26T20:59:27.926Z,100.00
2023-03-26T21:01:58.647Z,100.00
2023-03-26T21:04:27.736Z,100.00
2023-03-26T21:07:06.997Z,100.00
2023-03-26T21:09:36.985Z,100.00
2023-03-26T21:12:10.805Z,100.00
2023-03-26T21:14:43.364Z,100.00
2023-03-26T21:17:16.282Z,100.00
2023-03-26T21:19:46.044Z,100.00
2023-03-26T21:22:25.191Z,100.00
2023-03-26T21:25:09.837Z,100.00
2023-03-26T21:27:49.534Z,100.00
2023-03-26T21:30:18.924Z,100.00
2023-03-26T21:32:48.697Z,100.00
2023-03-26T21:35:18.252Z,100.00
2023-03-26T21:37:48.429Z,100.00
2023-03-26T21:40:18.886Z,100.00
2023-03-26T21:42:52.087Z,100.00
2023-03-26T21:45:22.353Z,100.00
2023-03-26T21:47:51.712Z,100.00
2023-03-26T21:50:23.225Z,100.00
2023-03-26T21:52:53.246Z,100.00
2023-03-26T21:55:23.447Z,100.00
2023-03-26T21:58:21.941Z,100.00
2023-03-26T22:01:11.291Z,100.00
2023-03-26T22:03:53.680Z,100.00
2023-03-26T22:06:27.430Z,100.00
2023-03-26T22:08:56.285Z,100.00
2023-03-26T22:11:24.959Z,100.00
2023-03-26T22:13:56.337Z,100.00
2023-03-26T22:16:25.838Z,100.00
2023-03-26T22:18:54.658Z,100.00
2023-03-26T22:21:23.187Z,100.00
2023-03-26T22:23:54.155Z,100.00
2023-03-26T22:26:24.585Z,100.00
2023-03-26T22:28:54.964Z,100.00
2023-03-26T22:31:24.243Z,100.00
2023-03-26T22:33:52.593Z,100.00
2023-03-26T22:36:22.949Z,100.00
2023-03-26T22:38:54.800Z,100.00
2023-03-26T22:41:23.875Z,100.00
2023-03-26T22:43:53.107Z,100.00
2023-03-26T22:46:24.263Z,100.00
2023-03-26T22:48:54.227Z,100.00
2023-03-26T22:51:22.564Z,100.00
2023-03-26T22:53:51.548Z,100.00
2023-03-26T22:56:19.926Z,100.00
2023-03-26T22:58:49.021Z,100.00
2023-03-26T23:01:20.801Z,100.00
2023-03-26T23:03:51.509Z,100.00
2023-03-26T23:06:20.683Z,100.00
2023-03-26T23:08:49.846Z,100.00
2023-03-26T23:11:21.426Z,100.00
2023-03-26T23:13:50.668Z,100.00
2023-03-26T23:16:20.865Z,100.00
2023-03-26T23:18:51.258Z,100.00
2023-03-26T23:21:21.882Z,100.00
2023-03-26T23:23:51.543Z,100.00
2023-03-26T23:26:19.869Z,100.00
2023-03-26T23:28:48.303Z,100.00
2023-03-26T23:31:16.671Z,100.00
2023-03-26T23:33:47.202Z,100.00
2023-03-26T23:36:19.486Z,100.00
2023-03-26T23:38:49.360Z,100.00
2023-03-26T23:41:20.844Z,100.00
2023-03-26T23:43:54.828Z,100.00
2023-03-26T23:46:24.812Z,100.00
2023-03-26T23:48:54.545Z,100.00
2023-03-26T23:51:24.749Z,100.00
2023-03-26T23:53:53.400Z,100.00
2023-03-26T23:56:22.236Z,100.00
2023-03-26T23:58:50.885Z,100.00
